Time;durP1;ratioP1;P1;durP2;ratioP2;P2;SDS_P1;SDS_P2;PMS_P1;PMS_P2;Temp;Humidity;BMP_temperature;BMP_pressure;BME280_temperature;BME280_humidity;BME280_pressure;Samples;Min_cycle;Max_cycle;Signal;HPM_P1;HPM_P2
2024/03/01 00:01:12;;;;;;;32.97;11.60;;;4.40;98.00;;;;;;5034173;28;21075;-66
2024/03/01 00:03:40;;;;;;;41.13;12.27;;;4.50;98.00;;;;;;5034057;28;20464;-66
2024/03/01 00:06:07;;;;;;;38.43;13.17;;;4.60;98.00;;;;;;5051544;28;20524;-66
2024/03/01 00:08:34;;;;;;;33.70;12.00;;;4.70;98.00;;;;;;5051505;28;20586;-66
2024/03/01 00:11:03;;;;;;;31.40;12.07;;;4.60;98.00;;;;;;5051679;28;20456;-66
2024/03/01 00:13:30;;;;;;;35.90;11.57;;;4.60;98.00;;;;;;5051106;28;20955;-66
2024/03/01 00:15:57;;;;;;;37.07;12.10;;;4.60;98.00;;;;;;5051324;28;20449;-66
2024/03/01 00:18:24;;;;;;;37.03;11.70;;;4.50;98.00;;;;;;5051125;28;20475;-66
2024/03/01 00:20:51;;;;;;;35.90;12.60;;;4.40;98.00;;;;;;5050435;28;20576;-66
2024/03/01 00:23:19;;;;;;;37.63;11.90;;;4.60;98.00;;;;;;5033786;28;20457;-66
2024/03/01 00:25:46;;;;;;;37.47;12.30;;;4.60;98.00;;;;;;5051293;28;20880;-66
2024/03/01 00:28:14;;;;;;;32.47;12.37;;;4.40;98.00;;;;;;5051277;28;20481;-66
2024/03/01 00:30:41;;;;;;;32.40;10.60;;;4.20;98.00;;;;;;5051190;28;20973;-67
2024/03/01 00:33:08;;;;;;;38.87;12.70;;;4.30;98.00;;;;;;5033503;28;20452;-66
2024/03/01 00:35:35;;;;;;;31.30;11.67;;;4.40;98.00;;;;;;5051182;28;20472;-66
2024/03/01 00:38:02;;;;;;;33.70;11.23;;;4.40;98.00;;;;;;5050859;28;20528;-66
2024/03/01 00:40:31;;;;;;;36.63;11.73;;;4.40;98.00;;;;;;5050900;28;20477;-66
2024/03/01 00:42:58;;;;;;;41.77;12.83;;;4.30;98.00;;;;;;5051084;28;20948;-66
2024/03/01 00:45:28;;;;;;;43.23;13.80;;;4.20;98.00;;;;;;5051097;28;20507;-67
2024/03/01 00:47:55;;;;;;;36.17;12.17;;;4.20;98.00;;;;;;5050834;28;20455;-66
2024/03/01 00:50:23;;;;;;;31.07;11.40;;;4.30;98.00;;;;;;5051166;28;20448;-66
2024/03/01 00:52:50;;;;;;;38.00;13.00;;;4.30;98.00;;;;;;5050675;28;20466;-66
2024/03/01 00:55:17;;;;;;;38.00;12.67;;;4.50;98.00;;;;;;5051064;28;20827;-66
2024/03/01 00:57:44;;;;;;;32.20;11.70;;;4.50;98.00;;;;;;5051074;28;20444;-66
2024/03/01 01:00:12;;;;;;;38.03;12.37;;;4.50;98.00;;;;;;5033389;28;20514;-66
2024/03/01 01:02:41;;;;;;;27.93;11.30;;;4.40;98.00;;;;;;5050943;28;20447;-66
2024/03/01 01:05:08;;;;;;;31.13;12.20;;;4.20;98.00;;;;;;5050995;28;20459;-66
2024/03/01 01:07:35;;;;;;;40.23;13.07;;;4.00;98.00;;;;;;5050666;28;20447;-66
2024/03/01 01:10:04;;;;;;;39.43;12.17;;;4.10;98.00;;;;;;5050664;28;20640;-66
2024/03/01 01:12:33;;;;;;;36.60;11.77;;;4.00;98.00;;;;;;5050840;28;20465;-66
2024/03/01 01:15:00;;;;;;;32.23;12.27;;;4.20;98.00;;;;;;5050899;28;20943;-66
2024/03/01 01:17:29;;;;;;;34.90;12.53;;;4.20;98.00;;;;;;5050813;28;20448;-65
2024/03/01 01:19:59;;;;;;;35.93;12.43;;;4.20;98.00;;;;;;5050401;28;20950;-66
2024/03/01 01:22:30;;;;;;;31.83;10.60;;;4.10;98.00;;;;;;5050384;28;20488;-66
2024/03/01 01:24:57;;;;;;;33.90;12.30;;;4.10;98.00;;;;;;5050652;28;20460;-66
2024/03/01 01:27:25;;;;;;;44.90;13.10;;;4.00;98.00;;;;;;5050620;28;20442;-66
2024/03/01 01:29:52;;;;;;;35.67;12.57;;;3.90;98.00;;;;;;5050720;28;20498;-65
2024/03/01 01:32:19;;;;;;;38.10;12.00;;;3.80;98.00;;;;;;5054577;28;20453;-65
2024/03/01 01:34:47;;;;;;;36.00;12.53;;;3.70;98.00;;;;;;5054729;28;21061;-66
2024/03/01 01:37:15;;;;;;;39.27;13.43;;;3.60;98.00;;;;;;5054466;28;20456;-66
2024/03/01 01:39:43;;;;;;;40.83;13.47;;;3.60;98.00;;;;;;5054598;28;20446;-66
2024/03/01 01:42:10;;;;;;;40.40;13.03;;;3.60;98.00;;;;;;5054472;28;21074;-66
2024/03/01 01:44:37;;;;;;;37.53;11.90;;;3.50;98.00;;;;;;5054637;28;20459;-66
2024/03/01 01:47:04;;;;;;;47.70;12.60;;;3.50;98.00;;;;;;5054339;28;20448;-66
2024/03/01 01:49:32;;;;;;;40.40;12.60;;;3.50;98.00;;;;;;5054506;28;20455;-66
2024/03/01 01:52:00;;;;;;;34.80;13.00;;;3.60;98.00;;;;;;5054422;28;20459;-65
2024/03/01 01:54:29;;;;;;;35.67;12.40;;;3.80;98.00;;;;;;5054258;28;20453;-65
2024/03/01 01:56:56;;;;;;;38.47;12.67;;;4.00;98.00;;;;;;5053769;28;20458;-65
2024/03/01 01:59:24;;;;;;;40.33;12.67;;;4.00;98.00;;;;;;5054167;28;20452;-65
2024/03/01 02:01:51;;;;;;;38.73;12.47;;;4.00;98.00;;;;;;5054039;28;20492;-65
2024/03/01 02:04:18;;;;;;;38.40;12.27;;;4.00;98.00;;;;;;5053898;28;20446;-66
2024/03/01 02:06:46;;;;;;;31.23;11.00;;;3.90;98.00;;;;;;5054000;28;20456;-66
2024/03/01 02:09:17;;;;;;;35.83;12.20;;;3.90;98.00;;;;;;5054037;28;20448;-65
2024/03/01 02:11:48;;;;;;;30.47;11.30;;;3.90;98.00;;;;;;5037090;28;20448;-66
2024/03/01 02:14:15;;;;;;;36.50;12.10;;;4.00;98.00;;;;;;5053588;28;20452;-65
2024/03/01 02:16:42;;;;;;;35.33;12.57;;;4.10;98.00;;;;;;5053448;28;20449;-66
2024/03/01 02:19:22;;;;;;;31.07;11.53;;;4.00;98.00;;;;;;5053767;28;20949;-66
2024/03/01 02:21:58;;;;;;;29.70;11.13;;;3.90;98.00;;;;;;5053608;28;20571;-65
2024/03/01 02:24:27;;;;;;;34.27;11.07;;;4.00;98.00;;;;;;5053532;28;20453;-66
2024/03/01 02:26:55;;;;;;;34.10;11.77;;;4.00;98.00;;;;;;5053709;28;20457;-65
2024/03/01 02:29:24;;;;;;;30.40;12.03;;;4.00;98.00;;;;;;5054009;28;20473;-65
2024/03/01 02:31:51;;;;;;;33.47;11.10;;;4.00;98.00;;;;;;5054341;28;20491;-66
2024/03/01 02:34:18;;;;;;;29.20;10.83;;;4.00;98.00;;;;;;5054375;28;20456;-65
2024/03/01 02:36:46;;;;;;;29.87;11.67;;;4.00;98.00;;;;;;5036346;28;20456;-65
2024/03/01 02:39:18;;;;;;;33.80;10.93;;;4.00;98.00;;;;;;5054152;28;20815;-65
2024/03/01 02:41:48;;;;;;;32.17;10.97;;;4.00;98.00;;;;;;5053319;28;20494;-65
2024/03/01 02:44:15;;;;;;;35.60;11.83;;;3.90;98.00;;;;;;5054158;28;20882;-65
2024/03/01 02:46:42;;;;;;;32.70;12.00;;;4.00;98.00;;;;;;5053900;28;20954;-66
2024/03/01 02:49:10;;;;;;;33.83;11.50;;;4.10;98.00;;;;;;5053900;28;20468;-65
2024/03/01 02:51:40;;;;;;;30.07;10.87;;;4.20;98.00;;;;;;5053927;28;20565;-66
2024/03/01 02:54:07;;;;;;;33.97;12.37;;;4.20;98.00;;;;;;5053896;28;20952;-66
2024/03/01 02:56:35;;;;;;;34.33;11.87;;;4.30;98.00;;;;;;5053925;28;20455;-66
2024/03/01 02:59:18;;;;;;;35.33;12.43;;;4.40;98.00;;;;;;5053007;28;20503;-65
2024/03/01 03:01:45;;;;;;;37.53;12.87;;;4.20;98.00;;;;;;5053284;28;20644;-65
2024/03/01 03:04:13;;;;;;;44.27;12.53;;;4.20;98.00;;;;;;5053841;28;20466;-65
2024/03/01 03:06:40;;;;;;;33.07;10.90;;;4.30;98.00;;;;;;5053596;28;20543;-65
2024/03/01 03:09:09;;;;;;;27.20;10.70;;;4.30;98.00;;;;;;5053760;28;20468;-66
2024/03/01 03:11:36;;;;;;;41.07;12.17;;;4.30;98.00;;;;;;5053747;28;20527;-65
2024/03/01 03:14:03;;;;;;;33.77;11.80;;;4.30;98.00;;;;;;5053755;28;20962;-65
2024/03/01 03:16:33;;;;;;;30.17;10.83;;;4.10;98.00;;;;;;5053646;28;20454;-64
2024/03/01 03:19:01;;;;;;;30.33;11.30;;;4.00;98.00;;;;;;5053670;28;20923;-64
2024/03/01 03:21:28;;;;;;;35.97;11.40;;;4.00;98.00;;;;;;5053425;28;21166;-65
2024/03/01 03:23:55;;;;;;;33.40;12.03;;;4.10;98.00;;;;;;5053598;28;20777;-65
2024/03/01 03:26:22;;;;;;;34.50;11.50;;;4.20;98.00;;;;;;5053426;28;20451;-65
2024/03/01 03:28:49;;;;;;;40.67;12.67;;;4.40;98.00;;;;;;5053152;28;20453;-65
2024/03/01 03:31:17;;;;;;;38.13;12.23;;;4.20;98.00;;;;;;5053445;28;20470;-65
2024/03/01 03:33:46;;;;;;;32.43;11.67;;;3.90;98.00;;;;;;5053521;28;20852;-65
2024/03/01 03:36:13;;;;;;;29.90;10.40;;;3.80;98.00;;;;;;5053151;28;20453;-65
2024/03/01 03:38:40;;;;;;;30.30;11.90;;;3.80;98.00;;;;;;5052410;28;20519;-65
2024/03/01 03:41:08;;;;;;;29.70;11.27;;;3.70;98.00;;;;;;5053234;28;20454;-65
2024/03/01 03:43:35;;;;;;;34.70;11.83;;;3.70;98.00;;;;;;5050830;28;20854;-65
2024/03/01 03:46:05;;;;;;;32.70;11.30;;;3.70;98.00;;;;;;5052731;28;20450;-65
2024/03/01 03:48:34;;;;;;;36.60;12.80;;;3.80;98.00;;;;;;5052552;28;20549;-65
2024/03/01 03:51:03;;;;;;;32.53;11.60;;;3.90;98.00;;;;;;5052927;28;20451;-65
2024/03/01 03:53:30;;;;;;;39.43;12.60;;;4.00;98.00;;;;;;5052057;28;20461;-64
2024/03/01 03:55:57;;;;;;;30.37;11.20;;;4.00;98.00;;;;;;5052032;28;20563;-65
2024/03/01 03:58:24;;;;;;;36.80;11.87;;;4.00;98.00;;;;;;5052658;28;20461;-65
2024/03/01 04:00:51;;;;;;;35.50;10.50;;;4.10;98.00;;;;;;5052291;28;20454;-65
2024/03/01 04:03:18;;;;;;;36.83;11.50;;;4.20;98.00;;;;;;5052397;28;20999;-66
2024/03/01 04:05:45;;;;;;;34.00;11.43;;;3.90;98.00;;;;;;5034595;28;20830;-65
2024/03/01 04:08:14;;;;;;;32.77;11.20;;;3.80;98.00;;;;;;5052201;28;20526;-65
2024/03/01 04:10:41;;;;;;;30.23;11.53;;;3.90;98.00;;;;;;5052132;28;20466;-65
2024/03/01 04:13:08;;;;;;;31.20;11.90;;;3.60;98.00;;;;;;5052165;28;20858;-65
2024/03/01 04:15:35;;;;;;;26.57;10.87;;;3.70;98.00;;;;;;5052420;28;20959;-64
2024/03/01 04:18:03;;;;;;;31.87;11.43;;;3.90;98.00;;;;;;5052224;28;20465;-65
2024/03/01 04:20:31;;;;;;;30.33;9.90;;;4.00;98.00;;;;;;5052311;28;20493;-65
2024/03/01 04:22:59;;;;;;;31.40;11.10;;;3.90;98.00;;;;;;5052038;28;20481;-65
2024/03/01 04:25:27;;;;;;;36.63;10.70;;;4.00;98.00;;;;;;5034609;28;20454;-65
2024/03/01 04:27:54;;;;;;;29.93;9.90;;;4.00;98.00;;;;;;5052131;28;20460;-65
2024/03/01 04:30:22;;;;;;;27.87;10.40;;;3.80;98.00;;;;;;5052272;28;20457;-66
2024/03/01 04:32:50;;;;;;;28.83;10.37;;;3.80;98.00;;;;;;5052054;28;20927;-66
2024/03/01 04:35:18;;;;;;;28.60;10.70;;;3.70;98.00;;;;;;5051630;28;20454;-65
2024/03/01 04:37:45;;;;;;;32.60;11.73;;;3.80;98.00;;;;;;5052056;28;20454;-65
2024/03/01 04:40:12;;;;;;;31.37;11.13;;;3.90;98.00;;;;;;5052053;28;20454;-65
2024/03/01 04:42:41;;;;;;;31.93;11.40;;;3.90;98.00;;;;;;5051789;28;20485;-65
2024/03/01 04:45:09;;;;;;;34.83;11.33;;;4.10;98.00;;;;;;5052058;28;20461;-66
2024/03/01 04:47:36;;;;;;;40.70;11.63;;;4.20;98.00;;;;;;5051062;28;20453;-66
2024/03/01 04:50:05;;;;;;;30.40;10.57;;;4.10;98.00;;;;;;5051569;28;20860;-67
2024/03/01 04:52:32;;;;;;;30.77;10.47;;;4.10;98.00;;;;;;5051790;28;20457;-66
2024/03/01 04:54:59;;;;;;;30.37;10.67;;;4.00;98.00;;;;;;5051899;28;20451;-64
2024/03/01 04:57:27;;;;;;;28.60;10.17;;;3.90;98.00;;;;;;5051845;28;20454;-64
2024/03/01 04:59:55;;;;;;;30.60;11.80;;;3.80;98.00;;;;;;5051877;28;20525;-65
2024/03/01 05:02:22;;;;;;;34.60;10.77;;;3.90;98.00;;;;;;5051652;28;20512;-65
2024/03/01 05:04:49;;;;;;;33.27;12.03;;;3.80;98.00;;;;;;5051427;28;20453;-65
2024/03/01 05:07:18;;;;;;;33.67;10.77;;;3.70;98.00;;;;;;5033871;28;20451;-65
2024/03/01 05:09:54;;;;;;;32.20;10.77;;;3.70;98.00;;;;;;5051765;28;20458;-65
2024/03/01 05:12:22;;;;;;;30.97;10.53;;;3.90;98.00;;;;;;5051628;28;20500;-65
2024/03/01 05:14:49;;;;;;;38.43;10.10;;;3.90;98.00;;;;;;5051908;28;20458;-65
2024/03/01 05:17:17;;;;;;;33.17;11.23;;;4.00;98.00;;;;;;5051744;28;20455;-64
2024/03/01 05:19:44;;;;;;;30.23;10.63;;;4.00;98.00;;;;;;5051990;28;20463;-64
2024/03/01 05:22:12;;;;;;;29.27;10.77;;;4.00;98.00;;;;;;5051688;28;20475;-64
2024/03/01 05:24:40;;;;;;;28.50;11.10;;;4.10;98.00;;;;;;5051451;28;20438;-64
2024/03/01 05:27:12;;;;;;;31.37;12.43;;;4.00;98.00;;;;;;5051377;28;20532;-65
2024/03/01 05:29:39;;;;;;;32.13;10.60;;;3.80;98.00;;;;;;5051654;28;20874;-64
2024/03/01 05:32:06;;;;;;;34.60;10.83;;;3.90;98.00;;;;;;5051593;28;20827;-64
2024/03/01 05:34:35;;;;;;;30.63;11.37;;;4.10;98.00;;;;;;5050873;28;20464;-64
2024/03/01 05:37:03;;;;;;;28.83;9.90;;;4.10;98.00;;;;;;5051169;28;20472;-65
2024/03/01 05:39:31;;;;;;;32.67;11.13;;;4.20;98.00;;;;;;5033910;28;20806;-65
2024/03/01 05:41:58;;;;;;;34.87;11.60;;;4.20;98.00;;;;;;5051287;28;20480;-65
2024/03/01 05:44:26;;;;;;;32.03;11.10;;;4.20;98.00;;;;;;5051041;28;20461;-65
2024/03/01 05:46:53;;;;;;;32.97;11.20;;;4.30;98.00;;;;;;5051063;28;20467;-65
2024/03/01 05:49:21;;;;;;;29.37;10.77;;;4.30;98.00;;;;;;5050316;28;20537;-64
2024/03/01 05:51:50;;;;;;;36.57;11.07;;;4.30;98.00;;;;;;5051158;28;20458;-65
2024/03/01 05:54:17;;;;;;;30.53;10.87;;;4.30;98.00;;;;;;5033055;28;20462;-65
2024/03/01 05:56:45;;;;;;;35.30;11.00;;;4.30;98.00;;;;;;5050797;28;20460;-65
2024/03/01 05:59:12;;;;;;;29.23;11.30;;;4.30;98.00;;;;;;5050968;28;20972;-65
2024/03/01 06:01:41;;;;;;;34.03;11.97;;;4.30;98.00;;;;;;5051048;28;20505;-64
2024/03/01 06:04:11;;;;;;;32.73;11.40;;;4.20;98.00;;;;;;5050972;28;20905;-64
2024/03/01 06:06:39;;;;;;;32.43;11.37;;;4.30;98.00;;;;;;5050915;28;20486;-65
2024/03/01 06:09:09;;;;;;;32.67;10.60;;;4.30;98.00;;;;;;5051106;28;20457;-65
2024/03/01 06:11:36;;;;;;;32.03;10.90;;;4.40;98.00;;;;;;5051042;28;20973;-65
2024/03/01 06:14:02;;;;;;;34.90;12.63;;;4.40;98.00;;;;;;5050913;28;20542;-65
2024/03/01 06:16:30;;;;;;;34.83;11.87;;;4.40;98.00;;;;;;5050241;28;20444;-65
2024/03/01 06:18:58;;;;;;;30.07;11.53;;;4.30;98.00;;;;;;5053971;28;20515;-65
2024/03/01 06:21:25;;;;;;;42.47;12.10;;;4.40;98.00;;;;;;5054363;28;20456;-65
2024/03/01 06:23:52;;;;;;;32.77;12.20;;;4.50;98.00;;;;;;5054248;28;20485;-66
2024/03/01 06:26:22;;;;;;;31.20;11.43;;;4.40;98.00;;;;;;5054354;28;20949;-66
2024/03/01 06:28:49;;;;;;;37.10;11.80;;;4.40;98.00;;;;;;5054343;28;20453;-66
2024/03/01 06:31:16;;;;;;;37.43;11.40;;;4.60;98.00;;;;;;5054260;28;20455;-66
2024/03/01 06:33:43;;;;;;;35.17;11.17;;;4.60;98.00;;;;;;5054382;28;20456;-66
2024/03/01 06:36:10;;;;;;;29.50;10.97;;;4.80;98.00;;;;;;5036420;28;20466;-66
2024/03/01 06:38:38;;;;;;;36.57;11.30;;;4.90;98.00;;;;;;5054551;28;20549;-66
2024/03/01 06:41:05;;;;;;;34.43;12.10;;;4.90;98.00;;;;;;5054449;28;20450;-66
2024/03/01 06:43:34;;;;;;;31.53;11.63;;;4.90;98.00;;;;;;5053677;28;20507;-66
2024/03/01 06:46:03;;;;;;;25.93;10.87;;;4.90;98.00;;;;;;5054050;28;20926;-66
2024/03/01 06:48:30;;;;;;;32.30;11.03;;;4.80;98.00;;;;;;5054173;28;20448;-65
2024/03/01 06:50:57;;;;;;;28.57;11.93;;;4.70;98.00;;;;;;5054298;28;20839;-66
2024/03/01 06:53:25;;;;;;;30.93;10.03;;;4.70;98.00;;;;;;5054143;28;20808;-66
2024/03/01 06:55:53;;;;;;;38.30;10.20;;;4.80;98.00;;;;;;5054288;28;20449;-66
2024/03/01 06:58:20;;;;;;;44.53;13.40;;;4.80;98.00;;;;;;5053482;28;20451;-66
2024/03/01 07:00:48;;;;;;;31.87;12.20;;;4.70;98.00;;;;;;5054289;28;20561;-63
2024/03/01 07:03:15;;;;;;;41.00;13.70;;;4.70;98.00;;;;;;5053828;28;20508;-63
2024/03/01 07:05:42;;;;;;;38.40;12.80;;;4.70;98.00;;;;;;5053989;28;21083;-63
2024/03/01 07:08:10;;;;;;;33.30;12.33;;;4.70;98.00;;;;;;5036352;28;20885;-63
2024/03/01 07:10:37;;;;;;;36.77;12.60;;;4.80;98.00;;;;;;5053837;28;20467;-63
2024/03/01 07:13:04;;;;;;;33.50;12.27;;;5.00;98.00;;;;;;5054113;28;20475;-63
2024/03/01 07:15:32;;;;;;;36.93;12.10;;;5.10;98.00;;;;;;5053812;28;20983;-63
2024/03/01 07:18:01;;;;;;;37.80;13.57;;;5.20;98.00;;;;;;5053518;28;20450;-63
2024/03/01 07:20:28;;;;;;;39.27;14.00;;;5.30;98.00;;;;;;5053761;28;20453;-63
2024/03/01 07:22:58;;;;;;;39.30;13.70;;;5.30;98.00;;;;;;5053797;28;20485;-63
2024/03/01 07:25:25;;;;;;;33.07;12.90;;;5.20;98.00;;;;;;5052952;28;20512;-63
2024/03/01 07:28:01;;;;;;;40.23;14.03;;;5.20;98.00;;;;;;5053010;28;20467;-64
2024/03/01 07:30:28;;;;;;;39.03;12.47;;;5.00;98.00;;;;;;5053577;28;20486;-63
2024/03/01 07:32:55;;;;;;;43.30;14.10;;;5.00;98.00;;;;;;5053482;28;20460;-63
2024/03/01 07:35:23;;;;;;;32.97;12.10;;;5.10;98.00;;;;;;5052756;28;20507;-63
2024/03/01 07:37:50;;;;;;;42.67;13.80;;;5.40;98.00;;;;;;5052883;28;20926;-63
2024/03/01 07:40:17;;;;;;;47.97;14.63;;;5.50;98.00;;;;;;5053116;28;20460;-63
2024/03/01 07:42:44;;;;;;;31.23;12.27;;;5.50;98.00;;;;;;5053022;28;20839;-64
2024/03/01 07:45:11;;;;;;;42.60;14.50;;;5.70;98.00;;;;;;5053091;28;20446;-63
2024/03/01 07:47:43;;;;;;;40.60;14.37;;;5.90;98.00;;;;;;5052308;28;20454;-63
2024/03/01 07:50:20;;;;;;;38.87;12.57;;;5.90;98.00;;;;;;5052979;28;20506;-63
2024/03/01 07:52:48;;;;;;;41.17;14.30;;;5.90;98.00;;;;;;5052297;28;20517;-64
2024/03/01 07:55:15;;;;;;;38.50;13.77;;;6.00;98.00;;;;;;5052164;28;20466;-63
2024/03/01 07:57:42;;;;;;;42.43;14.70;;;6.00;98.00;;;;;;5052063;28;20529;-63
2024/03/01 08:00:11;;;;;;;44.53;13.97;;;6.00;98.00;;;;;;5052644;28;20461;-63
2024/03/01 08:02:38;;;;;;;46.70;14.87;;;6.10;98.00;;;;;;5052545;28;20463;-64
2024/03/01 08:05:06;;;;;;;37.77;14.07;;;6.00;98.00;;;;;;5052718;28;20447;-63
2024/03/01 08:07:33;;;;;;;40.30;15.07;;;6.00;98.00;;;;;;5052466;28;20873;-63
2024/03/01 08:10:02;;;;;;;40.23;13.50;;;6.20;98.00;;;;;;5052431;28;20460;-63
2024/03/01 08:12:29;;;;;;;42.20;14.10;;;6.30;98.00;;;;;;5052336;28;20484;-63
2024/03/01 08:14:56;;;;;;;37.90;14.73;;;6.30;98.00;;;;;;5052491;28;20821;-63
2024/03/01 08:17:23;;;;;;;51.93;16.83;;;6.30;98.00;;;;;;5052071;28;20457;-63
2024/03/01 08:19:51;;;;;;;46.37;15.80;;;6.40;98.00;;;;;;5052054;28;20457;-63
2024/03/01 08:22:20;;;;;;;39.93;15.30;;;6.40;98.00;;;;;;5052372;28;20510;-63
2024/03/01 08:24:48;;;;;;;42.00;15.60;;;6.60;98.00;;;;;;5052378;28;20484;-63
2024/03/01 08:27:22;;;;;;;39.07;14.40;;;6.40;98.00;;;;;;5052376;28;20462;-62
2024/03/01 08:29:49;;;;;;;48.97;14.50;;;6.20;98.00;;;;;;5052464;28;20455;-63
2024/03/01 08:32:32;;;;;;;42.17;14.43;;;6.30;98.00;;;;;;5052342;28;20460;-63
2024/03/01 08:35:00;;;;;;;53.10;14.93;;;6.20;98.00;;;;;;5051217;28;20461;-63
2024/03/01 08:37:29;;;;;;;44.80;15.10;;;6.20;98.00;;;;;;5052034;28;20845;-63
2024/03/01 08:39:57;;;;;;;36.73;12.13;;;6.30;98.00;;;;;;5051552;28;20465;-62
2024/03/01 08:42:28;;;;;;;41.07;14.83;;;6.40;98.00;;;;;;5051471;28;20449;-62
2024/03/01 08:44:58;;;;;;;44.23;15.60;;;6.60;98.00;;;;;;5052010;28;20925;-63
2024/03/01 08:47:28;;;;;;;39.27;14.50;;;6.50;98.00;;;;;;5051820;28;20541;-63
2024/03/01 08:50:34;;;;;;;44.33;14.70;;;6.50;98.00;;;;;;5051466;28;20456;-63
2024/03/01 08:53:03;;;;;;;42.40;15.07;;;6.70;98.00;;;;;;5051714;28;20527;-63
2024/03/01 08:55:42;;;;;;;43.87;14.80;;;6.70;98.00;;;;;;5051977;28;20863;-62
2024/03/01 08:58:26;;;;;;;41.67;14.60;;;6.50;98.00;;;;;;5034020;28;20492;-62
2024/03/01 09:00:55;;;;;;;45.43;15.37;;;6.60;98.00;;;;;;5051908;28;20449;-63
2024/03/01 09:03:25;;;;;;;40.70;15.23;;;6.60;98.00;;;;;;5051148;28;20494;-61
2024/03/01 09:05:55;;;;;;;44.43;13.93;;;6.70;98.00;;;;;;5051517;28;21006;-61
2024/03/01 09:08:27;;;;;;;50.60;15.53;;;6.70;98.00;;;;;;5051586;28;20452;-62
2024/03/01 09:10:55;;;;;;;42.37;14.00;;;6.90;98.00;;;;;;5051685;28;20542;-63
2024/03/01 09:13:23;;;;;;;44.67;15.70;;;7.10;98.00;;;;;;5051000;28;20467;-63
2024/03/01 09:18:55;;;;;;;41.20;15.77;;;7.00;98.00;;;;;;5076479;22;20508;-63
2024/03/01 09:21:43;;;;;;;39.07;14.73;;;7.10;98.00;;;;;;5049958;28;20547;-63
2024/03/01 09:24:17;;;;;;;43.77;15.77;;;7.30;98.00;;;;;;5049551;28;20479;-63
2024/03/01 09:26:46;;;;;;;51.37;15.43;;;7.30;98.00;;;;;;5049479;28;20455;-63
2024/03/01 09:29:36;;;;;;;46.93;16.10;;;7.40;98.00;;;;;;5050724;28;20463;-62
2024/03/01 09:32:05;;;;;;;44.97;15.20;;;7.50;98.00;;;;;;5050885;28;20526;-63
2024/03/01 09:34:38;;;;;;;49.10;16.60;;;7.50;98.00;;;;;;5050345;28;20464;-62
2024/03/01 09:37:09;;;;;;;44.03;16.03;;;7.60;98.00;;;;;;5050790;28;20456;-63
2024/03/01 09:39:39;;;;;;;51.00;15.53;;;7.70;98.00;;;;;;5050014;28;20540;-63
2024/03/01 09:42:28;;;;;;;42.40;15.50;;;7.70;98.00;;;;;;5049950;28;20450;-63
2024/03/01 09:45:35;;;;;;;41.43;15.83;;;7.70;98.00;;;;;;5037650;28;20518;-63
2024/03/01 09:48:24;;;;;;;47.70;17.67;;;7.70;98.00;;;;;;5050104;28;20456;-62
2024/03/01 09:51:10;;;;;;;47.57;17.40;;;7.70;98.00;;;;;;5050222;28;20464;-62
2024/03/01 09:53:51;;;;;;;63.40;18.90;;;7.80;98.00;;;;;;5054107;28;20512;-62
2024/03/01 09:56:28;;;;;;;45.53;16.57;;;7.70;98.00;;;;;;5054243;28;20472;-62
2024/03/01 09:59:06;;;;;;;46.73;15.90;;;7.60;98.00;;;;;;5037240;28;20973;-62
2024/03/01 10:01:37;;;;;;;44.17;15.60;;;7.60;98.00;;;;;;5054235;28;20464;-63
2024/03/01 10:04:17;;;;;;;53.80;18.07;;;7.60;98.00;;;;;;5054027;28;20580;-63
2024/03/01 10:07:02;;;;;;;47.20;17.23;;;7.60;98.00;;;;;;5053917;28;20969;-62
2024/03/01 10:09:41;;;;;;;49.43;16.80;;;7.60;98.00;;;;;;5053085;28;20966;-64
2024/03/01 10:12:23;;;;;;;42.77;15.63;;;7.70;98.00;;;;;;5036811;28;20457;-63
2024/03/01 10:15:00;;;;;;;45.23;16.43;;;7.70;98.00;;;;;;5053645;28;20589;-63
2024/03/01 10:17:42;;;;;;;50.33;18.67;;;7.60;98.00;;;;;;5033472;28;20978;-63
2024/03/01 10:20:25;;;;;;;46.03;16.53;;;7.60;98.00;;;;;;5033706;28;20973;-63
2024/03/01 10:23:09;;;;;;;52.10;17.67;;;7.70;98.00;;;;;;5033926;28;20489;-64
2024/03/01 10:25:45;;;;;;;43.33;15.47;;;7.70;98.00;;;;;;5033856;28;20453;-63
2024/03/01 10:28:24;;;;;;;44.20;17.30;;;7.90;98.00;;;;;;5034008;28;20453;-63
2024/03/01 10:30:59;;;;;;;49.17;16.27;;;7.90;98.00;;;;;;5033955;28;20573;-63
2024/03/01 10:33:36;;;;;;;43.80;16.40;;;8.00;98.00;;;;;;5033587;28;20508;-63
2024/03/01 10:36:12;;;;;;;40.80;15.33;;;8.10;98.00;;;;;;5033676;28;20450;-63
2024/03/01 10:38:50;;;;;;;48.70;17.00;;;8.20;98.00;;;;;;5033471;28;20899;-63
2024/03/01 10:41:25;;;;;;;45.97;16.60;;;8.40;98.00;;;;;;5033517;28;20469;-63
2024/03/01 10:44:05;;;;;;;49.43;17.50;;;8.50;98.00;;;;;;5033387;28;20489;-63
2024/03/01 10:46:39;;;;;;;46.43;17.00;;;8.60;98.00;;;;;;5033496;28;20585;-62
2024/03/01 10:49:13;;;;;;;46.93;16.80;;;8.50;98.00;;;;;;5033655;28;20448;-63
2024/03/01 10:51:49;;;;;;;45.60;16.43;;;8.50;98.00;;;;;;5033503;28;20542;-63
2024/03/01 10:54:20;;;;;;;44.30;16.13;;;8.60;98.00;;;;;;5033441;28;20464;-63
2024/03/01 10:56:47;;;;;;;42.60;16.07;;;8.60;98.00;;;;;;5032993;28;20560;-63
2024/03/01 10:59:19;;;;;;;41.80;16.50;;;8.70;98.00;;;;;;5033097;28;20450;-63
2024/03/01 11:01:52;;;;;;;44.37;16.30;;;8.70;98.00;;;;;;5032886;28;20469;-63
2024/03/01 11:04:25;;;;;;;49.50;17.40;;;8.70;98.00;;;;;;5032495;28;20670;-63
2024/03/01 11:07:02;;;;;;;46.13;17.20;;;8.80;98.00;;;;;;5033066;28;20459;-63
2024/03/01 11:09:37;;;;;;;40.50;14.50;;;8.90;98.00;;;;;;5032853;28;20967;-63
2024/03/01 11:12:10;;;;;;;43.10;14.03;;;9.00;98.00;;;;;;5052573;28;20445;-63
2024/03/01 11:14:42;;;;;;;41.97;15.70;;;9.00;98.00;;;;;;5052753;28;20495;-63
2024/03/01 11:17:11;;;;;;;37.40;14.83;;;8.90;98.00;;;;;;5052600;28;20459;-63
2024/03/01 11:19:42;;;;;;;41.03;14.70;;;9.10;98.00;;;;;;5035104;28;20977;-63
2024/03/01 11:22:20;;;;;;;36.20;13.90;;;9.10;98.00;;;;;;5052696;28;20460;-63
2024/03/01 11:25:01;;;;;;;34.67;13.03;;;9.10;98.00;;;;;;5052106;28;20487;-63
2024/03/01 11:27:35;;;;;;;32.70;12.50;;;9.30;98.00;;;;;;5052563;28;20446;-63
2024/03/01 11:30:06;;;;;;;30.70;11.97;;;9.30;98.00;;;;;;5052762;28;20818;-63
2024/03/01 11:32:36;;;;;;;37.73;12.10;;;9.30;98.00;;;;;;5052233;28;20961;-63
2024/03/01 11:35:09;;;;;;;28.53;12.00;;;9.30;98.00;;;;;;5052330;28;20451;-63
2024/03/01 11:37:57;;;;;;;35.53;11.77;;;9.50;98.00;;;;;;5052178;28;20477;-63
2024/03/01 11:40:37;;;;;;;30.17;12.03;;;9.50;98.00;;;;;;5052252;28;20835;-63
2024/03/01 11:43:20;;;;;;;32.13;12.93;;;9.70;98.00;;;;;;5052464;28;20456;-63
2024/03/01 11:46:01;;;;;;;28.67;11.33;;;9.80;98.00;;;;;;5052156;28;20552;-63
2024/03/01 11:48:43;;;;;;;37.33;12.93;;;10.00;98.00;;;;;;5052213;28;20515;-63
2024/03/01 11:51:20;;;;;;;28.27;11.57;;;10.20;98.00;;;;;;5052164;28;20471;-64
2024/03/01 11:54:07;;;;;;;32.40;12.70;;;10.30;98.00;;;;;;5052015;28;20959;-63
2024/03/01 11:56:53;;;;;;;37.30;11.80;;;10.30;98.00;;;;;;5051791;28;20461;-63
2024/03/01 11:59:37;;;;;;;31.23;12.00;;;10.40;98.00;;;;;;5051967;28;20468;-63
2024/03/01 12:02:16;;;;;;;29.97;12.13;;;10.70;98.00;;;;;;5052029;28;20536;-63
2024/03/01 12:05:05;;;;;;;31.97;12.50;;;10.80;98.00;;;;;;5051642;28;20522;-63
2024/03/01 12:07:56;;;;;;;33.07;13.70;;;10.80;98.00;;;;;;5051851;28;20511;-62
2024/03/01 12:10:37;;;;;;;35.77;12.87;;;11.00;98.00;;;;;;5051681;28;20468;-63
2024/03/01 12:13:16;;;;;;;24.77;11.30;;;11.10;98.00;;;;;;5051757;28;20465;-63
2024/03/01 12:15:52;;;;;;;27.67;11.90;;;11.20;98.00;;;;;;5050649;28;20446;-63
2024/03/01 12:18:28;;;;;;;26.07;11.17;;;11.30;98.00;;;;;;5051192;28;21121;-64
2024/03/01 12:21:07;;;;;;;28.43;10.80;;;11.40;98.00;;;;;;5051674;28;20461;-63
2024/03/01 12:23:46;;;;;;;26.20;10.73;;;11.60;98.00;;;;;;5051489;28;20460;-63
2024/03/01 12:26:17;;;;;;;24.53;10.20;;;11.70;98.00;;;;;;5051605;28;20449;-65
2024/03/01 12:29:00;;;;;;;20.00;8.93;;;11.70;98.00;;;;;;5051209;28;20950;-65
2024/03/01 12:31:36;;;;;;;22.10;9.30;;;11.80;98.00;;;;;;5051536;28;21004;-65
2024/03/01 12:34:28;;;;;;;24.80;10.50;;;12.10;98.00;;;;;;5051728;28;20949;-65
2024/03/01 12:37:06;;;;;;;23.57;9.43;;;12.20;98.00;;;;;;5051673;28;20541;-63
2024/03/01 12:39:34;;;;;;;21.03;9.20;;;12.30;98.00;;;;;;5051725;28;20507;-63
2024/03/01 12:42:09;;;;;;;20.10;8.50;;;12.40;98.00;;;;;;5051685;28;20975;-63
2024/03/01 12:44:55;;;;;;;17.60;7.73;;;12.40;98.00;;;;;;5051434;28;21055;-63
2024/03/01 12:47:40;;;;;;;24.50;9.67;;;12.40;98.00;;;;;;5051729;28;20458;-63
2024/03/01 12:50:22;;;;;;;22.57;9.63;;;12.30;98.00;;;;;;5051809;28;20822;-63
2024/03/01 12:53:12;;;;;;;21.77;9.60;;;12.10;98.00;;;;;;5051571;28;20461;-63
2024/03/01 12:55:47;;;;;;;23.77;10.00;;;12.10;98.00;;;;;;5051024;28;20540;-63
2024/03/01 12:58:26;;;;;;;22.23;10.20;;;12.10;98.00;;;;;;5051180;28;20509;-63